Pagrindinis puslapis
METAR-TAF:

METAR-TAF

Oro uostai :

Mosjøen, Norvegija

platuma: 65-48N, ilguma: 013-08E, Aukštis: 70 m

Dabartinis oras

Ataskaita buvo paskelbta 41 minutes, ne 17:20 UTC
Vėjas 3 kt iš Pietų
Temperatūra 15°C
Drėgmė 72%
Slėgis 1010 hPa
Matomumas 10 km arba daugiau
Mažai debesys ne aukštis 5700 ft
Su prošvaistėmis ne aukštis 11000 ft

METAR: ENMS 141720Z 17003KT 9999 FEW057 BKN110 15/10 Q1010 RMK WIND 412FT 14003KT

Laikas: 20:01 (18:01 UTC)

Prognozė

Ataskaita buvo paskelbta 1 valandą ir 58 minutes, ne 16:03 UTC
Prognozė galioja nuo 14 metu 16 UTC su 14 metu 21 UTC
Vėjas 9 kt iš Pietų/Pietvakarių
Matomumas 10 km arba daugiau
Mažai debesys ne aukštis 4000 ft
Laikinai
nuo 14 metu 16 UTC su 14 metu 21 UTC
Išsisklaidę debesys ne aukštis 4000 ft, Liūtiniai kamuoliniai debesys.
Laikinai
nuo 14 metu 16 UTC su 14 metu 19 UTC
perkūnija, lietus,

TAF: ENMS 141603Z 1416/1421 20009KT 9999 FEW040 TEMPO 1416/1421 SCT040CB TEMPO 1416/1419 TSRA

Orai ataskaitas ir orų prognozės (METAR, TAF).

turimą stotys yra geltonos ir raudonos taškus žemėlapyje.

Perkelti pele per norėdami pamatyti stoties vardą.

Tada spustelėkite, norėdami matyti oro stebėjimo ir prognozės.

Norėdami pakeisti žemėlapį: spustelėkite ant žalios mygtukų su juodo kryžiaus žemyn,; žalią mygtuką su brūkšneliu, jei norite nutolinti; arba žalių rodyklių gretimoms žemėlapius.


METAR-TAF: